sensor_id;sensor_type;location;lat;lon;timestamp;P1;durP1;ratioP1;P2;durP2;ratioP2
56810;SDS011;42691;47.234;27.494;2022-09-24T00:01:09;11.18;;;7.63;;
56810;SDS011;42691;47.234;27.494;2022-09-24T00:03:37;10.88;;;8.95;;
56810;SDS011;42691;47.234;27.494;2022-09-24T00:06:04;10.50;;;8.32;;
56810;SDS011;42691;47.234;27.494;2022-09-24T00:08:30;9.38;;;7.90;;
56810;SDS011;42691;47.234;27.494;2022-09-24T00:10:59;9.82;;;7.32;;
56810;SDS011;42691;47.234;27.494;2022-09-24T00:13:26;11.88;;;7.80;;
56810;SDS011;42691;47.234;27.494;2022-09-24T00:15:52;9.25;;;6.97;;
56810;SDS011;42691;47.234;27.494;2022-09-24T00:18:17;11.35;;;8.32;;
56810;SDS011;42691;47.234;27.494;2022-09-24T00:20:44;11.45;;;6.38;;
56810;SDS011;42691;47.234;27.494;2022-09-24T00:23:10;11.93;;;6.63;;
56810;SDS011;42691;47.234;27.494;2022-09-24T00:25:39;8.25;;;5.80;;
56810;SDS011;42691;47.234;27.494;2022-09-24T00:28:27;7.63;;;5.93;;
56810;SDS011;42691;47.234;27.494;2022-09-24T00:30:54;9.88;;;6.57;;
56810;SDS011;42691;47.234;27.494;2022-09-24T00:33:22;10.20;;;8.55;;
56810;SDS011;42691;47.234;27.494;2022-09-24T00:35:48;12.35;;;6.85;;
56810;SDS011;42691;47.234;27.494;2022-09-24T00:38:13;10.07;;;6.97;;
56810;SDS011;42691;47.234;27.494;2022-09-24T00:40:39;9.35;;;7.13;;
56810;SDS011;42691;47.234;27.494;2022-09-24T00:43:21;12.68;;;7.57;;
56810;SDS011;42691;47.234;27.494;2022-09-24T00:45:47;14.45;;;7.45;;
56810;SDS011;42691;47.234;27.494;2022-09-24T00:48:13;13.20;;;7.10;;
56810;SDS011;42691;47.234;27.494;2022-09-24T00:50:39;8.60;;;6.68;;
56810;SDS011;42691;47.234;27.494;2022-09-24T00:53:07;13.43;;;6.85;;
56810;SDS011;42691;47.234;27.494;2022-09-24T00:55:37;10.77;;;8.05;;
56810;SDS011;42691;47.234;27.494;2022-09-24T00:58:05;10.02;;;6.50;;
56810;SDS011;42691;47.234;27.494;2022-09-24T01:00:32;10.48;;;7.50;;
56810;SDS011;42691;47.234;27.494;2022-09-24T01:03:01;12.23;;;7.47;;
56810;SDS011;42691;47.234;27.494;2022-09-24T01:05:31;14.85;;;6.50;;
56810;SDS011;42691;47.234;27.494;2022-09-24T01:07:57;14.15;;;7.65;;
56810;SDS011;42691;47.234;27.494;2022-09-24T01:10:30;17.17;;;7.63;;
56810;SDS011;42691;47.234;27.494;2022-09-24T01:15:49;8.80;;;6.20;;
56810;SDS011;42691;47.234;27.494;2022-09-24T01:21:43;9.23;;;6.07;;
56810;SDS011;42691;47.234;27.494;2022-09-24T01:27:00;10.40;;;5.63;;
56810;SDS011;42691;47.234;27.494;2022-09-24T01:29:46;9.25;;;6.15;;
56810;SDS011;42691;47.234;27.494;2022-09-24T01:32:22;10.23;;;7.60;;
56810;SDS011;42691;47.234;27.494;2022-09-24T01:34:54;10.60;;;7.47;;
56810;SDS011;42691;47.234;27.494;2022-09-24T01:37:24;10.40;;;6.72;;
56810;SDS011;42691;47.234;27.494;2022-09-24T01:39:53;10.55;;;7.15;;
56810;SDS011;42691;47.234;27.494;2022-09-24T01:42:22;8.98;;;6.10;;
56810;SDS011;42691;47.234;27.494;2022-09-24T01:44:53;9.60;;;6.40;;
56810;SDS011;42691;47.234;27.494;2022-09-24T01:47:21;7.63;;;6.50;;
56810;SDS011;42691;47.234;27.494;2022-09-24T01:49:54;7.32;;;6.18;;
56810;SDS011;42691;47.234;27.494;2022-09-24T01:52:21;8.35;;;6.15;;
56810;SDS011;42691;47.234;27.494;2022-09-24T01:54:51;10.50;;;6.90;;
56810;SDS011;42691;47.234;27.494;2022-09-24T01:57:25;7.88;;;5.95;;
56810;SDS011;42691;47.234;27.494;2022-09-24T02:00:06;8.43;;;6.78;;
56810;SDS011;42691;47.234;27.494;2022-09-24T02:02:47;9.80;;;6.38;;
56810;SDS011;42691;47.234;27.494;2022-09-24T02:08:10;11.65;;;6.30;;
56810;SDS011;42691;47.234;27.494;2022-09-24T02:10:41;8.77;;;5.90;;
56810;SDS011;42691;47.234;27.494;2022-09-24T02:13:10;7.38;;;5.38;;
56810;SDS011;42691;47.234;27.494;2022-09-24T02:15:38;7.25;;;6.10;;
56810;SDS011;42691;47.234;27.494;2022-09-24T02:18:09;9.35;;;6.22;;
56810;SDS011;42691;47.234;27.494;2022-09-24T02:20:38;6.47;;;5.68;;
56810;SDS011;42691;47.234;27.494;2022-09-24T02:23:07;9.27;;;5.57;;
56810;SDS011;42691;47.234;27.494;2022-09-24T02:28:19;6.33;;;5.43;;
56810;SDS011;42691;47.234;27.494;2022-09-24T02:30:47;7.95;;;6.13;;
56810;SDS011;42691;47.234;27.494;2022-09-24T02:33:17;11.35;;;6.28;;
56810;SDS011;42691;47.234;27.494;2022-09-24T02:36:04;7.63;;;5.50;;
56810;SDS011;42691;47.234;27.494;2022-09-24T02:38:31;7.00;;;5.72;;
56810;SDS011;42691;47.234;27.494;2022-09-24T02:40:56;10.55;;;6.47;;
56810;SDS011;42691;47.234;27.494;2022-09-24T02:43:22;9.38;;;6.78;;
56810;SDS011;42691;47.234;27.494;2022-09-24T02:45:49;7.03;;;5.05;;
56810;SDS011;42691;47.234;27.494;2022-09-24T02:48:14;7.43;;;5.47;;
56810;SDS011;42691;47.234;27.494;2022-09-24T02:50:39;7.18;;;4.10;;
56810;SDS011;42691;47.234;27.494;2022-09-24T02:53:05;8.52;;;6.25;;
56810;SDS011;42691;47.234;27.494;2022-09-24T02:55:30;10.38;;;5.57;;
56810;SDS011;42691;47.234;27.494;2022-09-24T02:57:56;6.22;;;5.00;;
56810;SDS011;42691;47.234;27.494;2022-09-24T03:00:21;6.68;;;4.53;;
56810;SDS011;42691;47.234;27.494;2022-09-24T03:02:46;7.32;;;4.15;;
56810;SDS011;42691;47.234;27.494;2022-09-24T03:05:12;5.65;;;4.10;;
56810;SDS011;42691;47.234;27.494;2022-09-24T03:07:42;8.55;;;4.72;;
56810;SDS011;42691;47.234;27.494;2022-09-24T03:10:10;6.05;;;4.78;;
56810;SDS011;42691;47.234;27.494;2022-09-24T03:12:37;6.13;;;4.18;;
56810;SDS011;42691;47.234;27.494;2022-09-24T03:15:02;6.45;;;4.53;;
56810;SDS011;42691;47.234;27.494;2022-09-24T03:17:28;4.97;;;4.03;;
56810;SDS011;42691;47.234;27.494;2022-09-24T03:19:54;7.45;;;5.18;;
56810;SDS011;42691;47.234;27.494;2022-09-24T03:22:19;6.57;;;4.68;;
56810;SDS011;42691;47.234;27.494;2022-09-24T03:24:45;6.43;;;3.92;;
56810;SDS011;42691;47.234;27.494;2022-09-24T03:27:10;7.38;;;4.78;;
56810;SDS011;42691;47.234;27.494;2022-09-24T03:29:36;7.50;;;5.15;;
56810;SDS011;42691;47.234;27.494;2022-09-24T03:32:36;5.15;;;4.25;;
56810;SDS011;42691;47.234;27.494;2022-09-24T03:35:03;7.53;;;4.28;;
56810;SDS011;42691;47.234;27.494;2022-09-24T03:37:29;6.40;;;5.15;;
56810;SDS011;42691;47.234;27.494;2022-09-24T03:39:56;6.30;;;4.82;;
56810;SDS011;42691;47.234;27.494;2022-09-24T03:42:21;4.93;;;4.32;;
56810;SDS011;42691;47.234;27.494;2022-09-24T03:44:46;5.32;;;3.80;;
56810;SDS011;42691;47.234;27.494;2022-09-24T03:47:12;3.63;;;3.05;;
56810;SDS011;42691;47.234;27.494;2022-09-24T03:49:37;5.05;;;4.05;;
56810;SDS011;42691;47.234;27.494;2022-09-24T03:52:03;8.60;;;4.05;;
56810;SDS011;42691;47.234;27.494;2022-09-24T03:54:28;4.70;;;3.50;;
56810;SDS011;42691;47.234;27.494;2022-09-24T03:56:54;5.72;;;4.50;;
56810;SDS011;42691;47.234;27.494;2022-09-24T03:59:19;9.52;;;4.18;;
56810;SDS011;42691;47.234;27.494;2022-09-24T04:01:44;8.70;;;4.20;;
56810;SDS011;42691;47.234;27.494;2022-09-24T04:04:10;7.78;;;4.25;;
56810;SDS011;42691;47.234;27.494;2022-09-24T04:06:38;7.18;;;4.40;;
56810;SDS011;42691;47.234;27.494;2022-09-24T04:09:03;6.50;;;4.35;;
56810;SDS011;42691;47.234;27.494;2022-09-24T04:11:29;24.92;;;7.80;;
56810;SDS011;42691;47.234;27.494;2022-09-24T04:13:54;21.50;;;6.30;;
56810;SDS011;42691;47.234;27.494;2022-09-24T04:16:20;10.73;;;5.30;;
56810;SDS011;42691;47.234;27.494;2022-09-24T04:18:45;5.65;;;4.40;;
56810;SDS011;42691;47.234;27.494;2022-09-24T04:21:12;9.90;;;6.57;;
56810;SDS011;42691;47.234;27.494;2022-09-24T04:23:38;6.78;;;5.20;;
56810;SDS011;42691;47.234;27.494;2022-09-24T04:26:03;8.85;;;7.13;;
56810;SDS011;42691;47.234;27.494;2022-09-24T04:28:29;7.82;;;5.70;;
56810;SDS011;42691;47.234;27.494;2022-09-24T04:30:54;8.45;;;5.15;;
56810;SDS011;42691;47.234;27.494;2022-09-24T04:33:20;6.45;;;4.93;;
56810;SDS011;42691;47.234;27.494;2022-09-24T04:35:45;5.00;;;3.83;;
56810;SDS011;42691;47.234;27.494;2022-09-24T04:38:11;5.95;;;4.53;;
56810;SDS011;42691;47.234;27.494;2022-09-24T04:40:37;5.07;;;4.03;;
56810;SDS011;42691;47.234;27.494;2022-09-24T04:43:03;5.88;;;4.60;;
56810;SDS011;42691;47.234;27.494;2022-09-24T04:45:30;9.85;;;4.85;;
56810;SDS011;42691;47.234;27.494;2022-09-24T04:47:56;9.32;;;4.38;;
56810;SDS011;42691;47.234;27.494;2022-09-24T04:50:25;7.30;;;4.28;;
56810;SDS011;42691;47.234;27.494;2022-09-24T04:52:51;9.27;;;4.32;;
56810;SDS011;42691;47.234;27.494;2022-09-24T04:55:18;12.90;;;5.32;;
56810;SDS011;42691;47.234;27.494;2022-09-24T04:57:44;7.97;;;4.53;;
56810;SDS011;42691;47.234;27.494;2022-09-24T05:00:11;22.63;;;7.25;;
56810;SDS011;42691;47.234;27.494;2022-09-24T05:02:39;18.30;;;6.03;;
56810;SDS011;42691;47.234;27.494;2022-09-24T05:05:05;7.38;;;4.40;;
56810;SDS011;42691;47.234;27.494;2022-09-24T05:07:31;13.60;;;5.50;;
56810;SDS011;42691;47.234;27.494;2022-09-24T05:09:57;13.10;;;5.78;;
56810;SDS011;42691;47.234;27.494;2022-09-24T05:12:22;9.50;;;4.55;;
56810;SDS011;42691;47.234;27.494;2022-09-24T05:14:48;15.40;;;6.70;;
56810;SDS011;42691;47.234;27.494;2022-09-24T05:17:13;7.60;;;4.05;;
56810;SDS011;42691;47.234;27.494;2022-09-24T05:19:39;12.10;;;4.20;;
56810;SDS011;42691;47.234;27.494;2022-09-24T05:22:05;5.95;;;3.47;;
56810;SDS011;42691;47.234;27.494;2022-09-24T05:24:30;6.97;;;4.95;;
56810;SDS011;42691;47.234;27.494;2022-09-24T05:26:56;4.63;;;3.50;;
56810;SDS011;42691;47.234;27.494;2022-09-24T05:29:40;6.05;;;3.53;;
56810;SDS011;42691;47.234;27.494;2022-09-24T05:32:17;3.92;;;2.90;;
56810;SDS011;42691;47.234;27.494;2022-09-24T05:34:43;9.15;;;4.60;;
56810;SDS011;42691;47.234;27.494;2022-09-24T05:37:10;5.05;;;3.33;;
56810;SDS011;42691;47.234;27.494;2022-09-24T05:39:37;8.68;;;3.75;;
56810;SDS011;42691;47.234;27.494;2022-09-24T05:42:02;9.02;;;3.90;;
56810;SDS011;42691;47.234;27.494;2022-09-24T05:44:28;5.72;;;4.05;;
56810;SDS011;42691;47.234;27.494;2022-09-24T05:46:55;4.80;;;3.92;;
56810;SDS011;42691;47.234;27.494;2022-09-24T05:49:20;5.38;;;3.22;;
56810;SDS011;42691;47.234;27.494;2022-09-24T05:51:49;4.93;;;3.15;;
56810;SDS011;42691;47.234;27.494;2022-09-24T05:54:17;5.40;;;2.90;;
56810;SDS011;42691;47.234;27.494;2022-09-24T05:56:43;5.00;;;3.42;;
56810;SDS011;42691;47.234;27.494;2022-09-24T05:59:08;5.78;;;3.08;;
56810;SDS011;42691;47.234;27.494;2022-09-24T06:01:34;5.15;;;3.13;;
56810;SDS011;42691;47.234;27.494;2022-09-24T06:04:00;4.13;;;2.88;;
56810;SDS011;42691;47.234;27.494;2022-09-24T06:06:25;3.92;;;3.30;;
56810;SDS011;42691;47.234;27.494;2022-09-24T06:08:53;6.63;;;3.17;;
56810;SDS011;42691;47.234;27.494;2022-09-24T06:11:19;4.65;;;3.47;;
56810;SDS011;42691;47.234;27.494;2022-09-24T06:13:46;12.23;;;4.25;;
56810;SDS011;42691;47.234;27.494;2022-09-24T06:16:12;6.75;;;2.97;;
56810;SDS011;42691;47.234;27.494;2022-09-24T06:18:39;4.63;;;3.22;;
56810;SDS011;42691;47.234;27.494;2022-09-24T06:21:13;5.53;;;3.65;;
56810;SDS011;42691;47.234;27.494;2022-09-24T06:23:41;4.90;;;3.20;;
56810;SDS011;42691;47.234;27.494;2022-09-24T06:26:09;4.45;;;3.63;;
56810;SDS011;42691;47.234;27.494;2022-09-24T06:28:36;8.15;;;3.65;;
56810;SDS011;42691;47.234;27.494;2022-09-24T06:31:02;57.33;;;10.38;;
56810;SDS011;42691;47.234;27.494;2022-09-24T06:33:29;13.68;;;6.25;;
56810;SDS011;42691;47.234;27.494;2022-09-24T06:35:54;7.95;;;4.50;;
56810;SDS011;42691;47.234;27.494;2022-09-24T06:38:23;8.02;;;4.05;;
56810;SDS011;42691;47.234;27.494;2022-09-24T06:40:48;10.57;;;5.82;;
56810;SDS011;42691;47.234;27.494;2022-09-24T06:43:14;9.45;;;3.42;;
56810;SDS011;42691;47.234;27.494;2022-09-24T06:45:40;12.73;;;4.45;;
56810;SDS011;42691;47.234;27.494;2022-09-24T06:48:10;6.20;;;3.13;;
56810;SDS011;42691;47.234;27.494;2022-09-24T06:50:41;5.85;;;3.70;;
56810;SDS011;42691;47.234;27.494;2022-09-24T06:53:08;21.52;;;6.97;;
56810;SDS011;42691;47.234;27.494;2022-09-24T06:55:35;8.10;;;4.10;;
56810;SDS011;42691;47.234;27.494;2022-09-24T06:58:03;7.13;;;4.07;;
56810;SDS011;42691;47.234;27.494;2022-09-24T07:00:40;6.13;;;3.28;;
56810;SDS011;42691;47.234;27.494;2022-09-24T07:03:08;7.57;;;4.80;;
56810;SDS011;42691;47.234;27.494;2022-09-24T07:05:38;8.77;;;3.83;;
56810;SDS011;42691;47.234;27.494;2022-09-24T07:08:03;8.27;;;4.97;;
56810;SDS011;42691;47.234;27.494;2022-09-24T07:10:29;10.65;;;5.72;;
56810;SDS011;42691;47.234;27.494;2022-09-24T07:12:55;10.57;;;5.05;;
56810;SDS011;42691;47.234;27.494;2022-09-24T07:15:20;12.43;;;4.35;;
56810;SDS011;42691;47.234;27.494;2022-09-24T07:17:45;8.48;;;4.13;;
56810;SDS011;42691;47.234;27.494;2022-09-24T07:20:11;7.10;;;4.05;;
56810;SDS011;42691;47.234;27.494;2022-09-24T07:22:37;8.27;;;3.38;;
56810;SDS011;42691;47.234;27.494;2022-09-24T07:25:05;6.05;;;4.03;;
56810;SDS011;42691;47.234;27.494;2022-09-24T07:27:37;6.47;;;3.95;;
56810;SDS011;42691;47.234;27.494;2022-09-24T07:30:04;6.00;;;3.78;;
56810;SDS011;42691;47.234;27.494;2022-09-24T07:32:30;7.25;;;3.88;;
56810;SDS011;42691;47.234;27.494;2022-09-24T07:34:56;7.53;;;4.93;;
56810;SDS011;42691;47.234;27.494;2022-09-24T07:37:21;18.08;;;5.82;;
56810;SDS011;42691;47.234;27.494;2022-09-24T07:39:47;6.15;;;3.55;;
56810;SDS011;42691;47.234;27.494;2022-09-24T07:42:12;6.13;;;4.13;;
56810;SDS011;42691;47.234;27.494;2022-09-24T07:44:38;7.53;;;3.92;;
56810;SDS011;42691;47.234;27.494;2022-09-24T07:47:03;8.75;;;4.18;;
56810;SDS011;42691;47.234;27.494;2022-09-24T07:49:28;6.10;;;4.22;;
56810;SDS011;42691;47.234;27.494;2022-09-24T07:51:56;9.00;;;4.50;;
56810;SDS011;42691;47.234;27.494;2022-09-24T07:54:22;15.65;;;4.32;;
56810;SDS011;42691;47.234;27.494;2022-09-24T07:56:48;6.65;;;4.00;;
56810;SDS011;42691;47.234;27.494;2022-09-24T07:59:13;10.20;;;4.82;;
56810;SDS011;42691;47.234;27.494;2022-09-24T08:01:39;10.18;;;5.53;;
56810;SDS011;42691;47.234;27.494;2022-09-24T08:04:04;7.05;;;4.32;;
56810;SDS011;42691;47.234;27.494;2022-09-24T08:06:32;8.43;;;5.32;;
56810;SDS011;42691;47.234;27.494;2022-09-24T08:08:59;10.43;;;4.70;;
56810;SDS011;42691;47.234;27.494;2022-09-24T08:11:26;11.70;;;5.68;;
56810;SDS011;42691;47.234;27.494;2022-09-24T08:13:51;10.13;;;6.72;;
56810;SDS011;42691;47.234;27.494;2022-09-24T08:16:17;10.15;;;5.95;;
56810;SDS011;42691;47.234;27.494;2022-09-24T08:18:45;7.93;;;5.78;;
56810;SDS011;42691;47.234;27.494;2022-09-24T08:21:11;12.73;;;5.55;;
56810;SDS011;42691;47.234;27.494;2022-09-24T08:23:37;9.70;;;5.43;;
56810;SDS011;42691;47.234;27.494;2022-09-24T08:26:06;7.95;;;4.75;;
56810;SDS011;42691;47.234;27.494;2022-09-24T08:28:32;11.05;;;6.72;;
56810;SDS011;42691;47.234;27.494;2022-09-24T08:31:02;11.93;;;4.20;;
56810;SDS011;42691;47.234;27.494;2022-09-24T08:33:31;7.57;;;5.63;;
56810;SDS011;42691;47.234;27.494;2022-09-24T08:36:00;7.95;;;4.90;;
56810;SDS011;42691;47.234;27.494;2022-09-24T08:38:27;8.73;;;4.85;;
56810;SDS011;42691;47.234;27.494;2022-09-24T08:49:04;7.78;;;4.75;;
56810;SDS011;42691;47.234;27.494;2022-09-24T08:51:37;8.20;;;5.30;;
56810;SDS011;42691;47.234;27.494;2022-09-24T08:54:10;11.02;;;4.55;;
56810;SDS011;42691;47.234;27.494;2022-09-24T08:56:39;7.63;;;4.78;;
56810;SDS011;42691;47.234;27.494;2022-09-24T09:09:45;8.90;;;6.35;;
56810;SDS011;42691;47.234;27.494;2022-09-24T09:12:14;11.25;;;5.65;;
56810;SDS011;42691;47.234;27.494;2022-09-24T09:15:08;8.43;;;5.03;;
56810;SDS011;42691;47.234;27.494;2022-09-24T09:20:16;10.70;;;5.93;;
56810;SDS011;42691;47.234;27.494;2022-09-24T09:22:49;7.47;;;4.90;;
56810;SDS011;42691;47.234;27.494;2022-09-24T09:28:11;14.00;;;6.55;;
56810;SDS011;42691;47.234;27.494;2022-09-24T09:36:08;6.00;;;2.95;;
56810;SDS011;42691;47.234;27.494;2022-09-24T09:39:23;8.57;;;3.35;;
56810;SDS011;42691;47.234;27.494;2022-09-24T09:41:40;9.80;;;3.70;;
56810;SDS011;42691;47.234;27.494;2022-09-24T09:44:25;5.45;;;3.75;;
56810;SDS011;42691;47.234;27.494;2022-09-24T09:46:54;8.43;;;3.55;;
56810;SDS011;42691;47.234;27.494;2022-09-24T09:49:31;5.60;;;3.42;;
56810;SDS011;42691;47.234;27.494;2022-09-24T09:52:00;5.32;;;3.70;;
56810;SDS011;42691;47.234;27.494;2022-09-24T09:54:38;4.32;;;3.03;;
56810;SDS011;42691;47.234;27.494;2022-09-24T09:57:06;5.78;;;4.00;;
56810;SDS011;42691;47.234;27.494;2022-09-24T09:59:36;5.28;;;2.67;;
56810;SDS011;42691;47.234;27.494;2022-09-24T10:02:02;6.40;;;3.15;;
56810;SDS011;42691;47.234;27.494;2022-09-24T10:09:34;4.15;;;2.65;;
56810;SDS011;42691;47.234;27.494;2022-09-24T10:12:07;4.60;;;3.00;;
56810;SDS011;42691;47.234;27.494;2022-09-24T10:14:39;4.95;;;3.47;;
56810;SDS011;42691;47.234;27.494;2022-09-24T10:17:05;7.35;;;5.30;;
56810;SDS011;42691;47.234;27.494;2022-09-24T10:19:34;4.03;;;2.65;;
56810;SDS011;42691;47.234;27.494;2022-09-24T10:24:59;5.93;;;3.85;;
56810;SDS011;42691;47.234;27.494;2022-09-24T10:29:54;4.05;;;2.83;;
56810;SDS011;42691;47.234;27.494;2022-09-24T10:32:39;4.00;;;2.78;;
56810;SDS011;42691;47.234;27.494;2022-09-24T10:35:22;3.28;;;1.88;;
56810;SDS011;42691;47.234;27.494;2022-09-24T10:38:12;3.72;;;3.00;;
56810;SDS011;42691;47.234;27.494;2022-09-24T10:40:40;4.95;;;2.92;;
56810;SDS011;42691;47.234;27.494;2022-09-24T10:43:06;4.18;;;2.55;;
56810;SDS011;42691;47.234;27.494;2022-09-24T10:45:48;5.93;;;2.90;;
56810;SDS011;42691;47.234;27.494;2022-09-24T10:48:20;3.38;;;1.95;;
56810;SDS011;42691;47.234;27.494;2022-09-24T10:56:25;3.33;;;2.28;;
56810;SDS011;42691;47.234;27.494;2022-09-24T10:59:11;3.17;;;2.45;;
56810;SDS011;42691;47.234;27.494;2022-09-24T11:10:51;6.72;;;2.53;;
56810;SDS011;42691;47.234;27.494;2022-09-24T11:13:23;3.13;;;1.70;;
56810;SDS011;42691;47.234;27.494;2022-09-24T11:30:12;3.63;;;2.15;;
56810;SDS011;42691;47.234;27.494;2022-09-24T11:52:04;2.90;;;2.53;;
56810;SDS011;42691;47.234;27.494;2022-09-24T11:57:23;3.53;;;2.30;;
56810;SDS011;42691;47.234;27.494;2022-09-24T12:05:16;3.13;;;2.33;;
56810;SDS011;42691;47.234;27.494;2022-09-24T12:07:54;3.67;;;2.47;;
56810;SDS011;42691;47.234;27.494;2022-09-24T12:13:21;3.15;;;2.40;;
56810;SDS011;42691;47.234;27.494;2022-09-24T12:21:33;3.28;;;2.28;;
56810;SDS011;42691;47.234;27.494;2022-09-24T12:24:05;5.30;;;2.88;;
56810;SDS011;42691;47.234;27.494;2022-09-24T12:26:37;6.65;;;3.25;;
56810;SDS011;42691;47.234;27.494;2022-09-24T12:32:26;5.95;;;2.75;;
56810;SDS011;42691;47.234;27.494;2022-09-24T12:38:37;3.83;;;2.40;;
56810;SDS011;42691;47.234;27.494;2022-09-24T12:47:14;4.38;;;2.03;;
56810;SDS011;42691;47.234;27.494;2022-09-24T12:51:53;3.35;;;1.90;;
56810;SDS011;42691;47.234;27.494;2022-09-24T12:54:28;3.75;;;2.20;;
56810;SDS011;42691;47.234;27.494;2022-09-24T12:57:14;2.93;;;2.07;;
56810;SDS011;42691;47.234;27.494;2022-09-24T12:59:47;3.13;;;2.55;;
56810;SDS011;42691;47.234;27.494;2022-09-24T13:02:24;3.40;;;1.88;;
56810;SDS011;42691;47.234;27.494;2022-09-24T13:05:03;3.70;;;2.13;;
56810;SDS011;42691;47.234;27.494;2022-09-24T13:07:41;4.20;;;2.30;;
56810;SDS011;42691;47.234;27.494;2022-09-24T13:12:46;3.35;;;2.50;;
56810;SDS011;42691;47.234;27.494;2022-09-24T13:15:19;3.58;;;2.22;;
56810;SDS011;42691;47.234;27.494;2022-09-24T13:18:03;3.58;;;2.25;;
56810;SDS011;42691;47.234;27.494;2022-09-24T13:20:29;2.72;;;2.17;;
56810;SDS011;42691;47.234;27.494;2022-09-24T13:22:57;3.05;;;2.50;;
56810;SDS011;42691;47.234;27.494;2022-09-24T13:25:36;3.55;;;2.30;;
56810;SDS011;42691;47.234;27.494;2022-09-24T13:28:03;4.28;;;2.45;;
56810;SDS011;42691;47.234;27.494;2022-09-24T13:30:45;4.32;;;2.35;;
56810;SDS011;42691;47.234;27.494;2022-09-24T13:33:22;2.35;;;1.90;;
56810;SDS011;42691;47.234;27.494;2022-09-24T13:38:32;4.50;;;1.92;;
56810;SDS011;42691;47.234;27.494;2022-09-24T13:41:02;4.43;;;2.25;;
56810;SDS011;42691;47.234;27.494;2022-09-24T13:43:47;5.45;;;3.15;;
56810;SDS011;42691;47.234;27.494;2022-09-24T13:46:18;4.97;;;2.90;;
56810;SDS011;42691;47.234;27.494;2022-09-24T13:49:07;2.10;;;1.88;;
56810;SDS011;42691;47.234;27.494;2022-09-24T13:51:35;3.00;;;2.30;;
56810;SDS011;42691;47.234;27.494;2022-09-24T13:54:11;4.10;;;2.30;;
56810;SDS011;42691;47.234;27.494;2022-09-24T13:59:38;7.68;;;3.28;;
56810;SDS011;42691;47.234;27.494;2022-09-24T14:02:18;4.72;;;2.83;;
56810;SDS011;42691;47.234;27.494;2022-09-24T14:07:18;4.07;;;2.60;;
56810;SDS011;42691;47.234;27.494;2022-09-24T14:09:45;6.72;;;2.95;;
56810;SDS011;42691;47.234;27.494;2022-09-24T14:12:13;5.20;;;3.13;;
56810;SDS011;42691;47.234;27.494;2022-09-24T14:14:58;5.45;;;2.80;;
56810;SDS011;42691;47.234;27.494;2022-09-24T14:17:24;5.22;;;3.03;;
56810;SDS011;42691;47.234;27.494;2022-09-24T14:19:54;5.38;;;2.83;;
56810;SDS011;42691;47.234;27.494;2022-09-24T14:22:37;4.82;;;3.17;;
56810;SDS011;42691;47.234;27.494;2022-09-24T14:25:06;4.43;;;3.00;;
56810;SDS011;42691;47.234;27.494;2022-09-24T14:27:32;4.20;;;3.10;;
56810;SDS011;42691;47.234;27.494;2022-09-24T14:30:07;3.53;;;2.88;;
56810;SDS011;42691;47.234;27.494;2022-09-24T14:32:43;4.45;;;3.22;;
56810;SDS011;42691;47.234;27.494;2022-09-24T14:35:16;3.63;;;2.45;;
56810;SDS011;42691;47.234;27.494;2022-09-24T14:37:46;6.25;;;3.35;;
56810;SDS011;42691;47.234;27.494;2022-09-24T14:40:24;6.10;;;3.17;;
56810;SDS011;42691;47.234;27.494;2022-09-24T14:42:53;5.50;;;3.33;;
56810;SDS011;42691;47.234;27.494;2022-09-24T14:45:25;7.22;;;3.25;;
56810;SDS011;42691;47.234;27.494;2022-09-24T14:48:04;5.43;;;2.95;;
56810;SDS011;42691;47.234;27.494;2022-09-24T14:50:41;6.65;;;3.25;;
56810;SDS011;42691;47.234;27.494;2022-09-24T14:55:57;4.00;;;3.13;;
56810;SDS011;42691;47.234;27.494;2022-09-24T14:58:33;5.13;;;3.55;;
56810;SDS011;42691;47.234;27.494;2022-09-24T15:01:19;3.95;;;2.78;;
56810;SDS011;42691;47.234;27.494;2022-09-24T15:03:47;5.50;;;3.17;;
56810;SDS011;42691;47.234;27.494;2022-09-24T15:06:22;2.58;;;2.10;;
56810;SDS011;42691;47.234;27.494;2022-09-24T15:08:51;4.30;;;3.00;;
56810;SDS011;42691;47.234;27.494;2022-09-24T15:11:30;4.15;;;2.78;;
56810;SDS011;42691;47.234;27.494;2022-09-24T15:16:33;5.70;;;3.75;;
56810;SDS011;42691;47.234;27.494;2022-09-24T15:19:08;4.82;;;3.38;;
56810;SDS011;42691;47.234;27.494;2022-09-24T15:21:38;14.45;;;3.90;;
56810;SDS011;42691;47.234;27.494;2022-09-24T15:24:04;5.95;;;3.25;;
56810;SDS011;42691;47.234;27.494;2022-09-24T15:26:33;3.25;;;2.70;;
56810;SDS011;42691;47.234;27.494;2022-09-24T15:29:03;4.73;;;3.03;;
56810;SDS011;42691;47.234;27.494;2022-09-24T15:31:28;5.15;;;3.13;;
56810;SDS011;42691;47.234;27.494;2022-09-24T15:33:55;3.60;;;2.72;;
56810;SDS011;42691;47.234;27.494;2022-09-24T15:36:21;2.85;;;2.58;;
56810;SDS011;42691;47.234;27.494;2022-09-24T15:38:47;5.13;;;3.65;;
56810;SDS011;42691;47.234;27.494;2022-09-24T15:41:17;4.72;;;3.30;;
56810;SDS011;42691;47.234;27.494;2022-09-24T15:43:46;4.72;;;3.15;;
56810;SDS011;42691;47.234;27.494;2022-09-24T15:46:11;5.00;;;3.17;;
56810;SDS011;42691;47.234;27.494;2022-09-24T15:48:37;5.18;;;3.42;;
56810;SDS011;42691;47.234;27.494;2022-09-24T15:51:02;5.05;;;3.38;;
56810;SDS011;42691;47.234;27.494;2022-09-24T15:53:29;3.67;;;2.83;;
56810;SDS011;42691;47.234;27.494;2022-09-24T15:55:59;8.45;;;3.42;;
56810;SDS011;42691;47.234;27.494;2022-09-24T15:58:26;5.63;;;3.42;;
56810;SDS011;42691;47.234;27.494;2022-09-24T16:00:52;4.15;;;2.95;;
56810;SDS011;42691;47.234;27.494;2022-09-24T16:03:27;5.07;;;3.42;;
56810;SDS011;42691;47.234;27.494;2022-09-24T16:05:54;6.20;;;3.38;;
56810;SDS011;42691;47.234;27.494;2022-09-24T16:08:21;6.07;;;4.05;;
56810;SDS011;42691;47.234;27.494;2022-09-24T16:10:46;14.98;;;4.30;;
56810;SDS011;42691;47.234;27.494;2022-09-24T16:13:12;11.35;;;4.25;;
56810;SDS011;42691;47.234;27.494;2022-09-24T16:15:39;10.40;;;3.85;;
56810;SDS011;42691;47.234;27.494;2022-09-24T16:18:05;5.18;;;3.45;;
56810;SDS011;42691;47.234;27.494;2022-09-24T16:20:31;5.43;;;3.58;;
56810;SDS011;42691;47.234;27.494;2022-09-24T16:22:58;5.57;;;3.05;;
56810;SDS011;42691;47.234;27.494;2022-09-24T16:25:23;4.40;;;3.42;;
56810;SDS011;42691;47.234;27.494;2022-09-24T16:27:49;10.00;;;3.83;;
56810;SDS011;42691;47.234;27.494;2022-09-24T16:30:15;3.88;;;3.05;;
56810;SDS011;42691;47.234;27.494;2022-09-24T16:32:40;3.03;;;2.42;;
56810;SDS011;42691;47.234;27.494;2022-09-24T16:35:06;4.05;;;3.55;;
56810;SDS011;42691;47.234;27.494;2022-09-24T16:37:35;5.85;;;3.05;;
56810;SDS011;42691;47.234;27.494;2022-09-24T16:40:01;5.13;;;4.07;;
56810;SDS011;42691;47.234;27.494;2022-09-24T16:42:27;8.70;;;4.82;;
56810;SDS011;42691;47.234;27.494;2022-09-24T16:44:52;8.63;;;4.25;;
56810;SDS011;42691;47.234;27.494;2022-09-24T16:47:18;8.75;;;4.63;;
56810;SDS011;42691;47.234;27.494;2022-09-24T16:49:44;7.68;;;4.72;;
56810;SDS011;42691;47.234;27.494;2022-09-24T16:52:10;12.13;;;4.65;;
56810;SDS011;42691;47.234;27.494;2022-09-24T16:54:36;6.40;;;3.92;;
56810;SDS011;42691;47.234;27.494;2022-09-24T16:57:01;5.28;;;3.97;;
56810;SDS011;42691;47.234;27.494;2022-09-24T16:59:30;5.55;;;3.22;;
56810;SDS011;42691;47.234;27.494;2022-09-24T17:01:56;6.40;;;4.15;;
56810;SDS011;42691;47.234;27.494;2022-09-24T17:04:21;6.35;;;3.88;;
56810;SDS011;42691;47.234;27.494;2022-09-24T17:06:47;11.32;;;4.90;;
56810;SDS011;42691;47.234;27.494;2022-09-24T17:09:12;8.07;;;5.00;;
56810;SDS011;42691;47.234;27.494;2022-09-24T17:11:56;7.22;;;4.35;;
56810;SDS011;42691;47.234;27.494;2022-09-24T17:14:22;12.38;;;5.20;;